Gabriella — OJHP — position and weather

sailwx.info

Track history (hours):
 
Tides and Currents Weather Stations Pressure Air Temp Water Temp Dewpoint Dewpoint Depression Visibility Wind Speed Wind Dir Waves Ship Positions

Gabriella

Last reported at 2017-Aug-19 20:01 UTC. Time now 2017-Aug-19 20:17 UTC.
Position N 59°60' E 019°49'.

Length 172 m; draft 6.5 m.

Type: Passenger vessel. MMSI: 230361000.

Date/timePositionNaut miles runAvg speedWind from/ knotsBaromVisibWave heightAir tempDewpointWater temp
2017-Aug-19 20:01N 59°60' E 019°49'918.9
2017-Aug-19 19:31N 59°53' E 019°36'714.6
2017-Aug-19 19:01N 59°48' E 019°26'816.8
2017-Aug-19 18:31N 59°44' E 019°11'816.8
2017-Aug-19 18:00N 59°40' E 018°56'511.0
2017-Aug-19 17:30N 59°36' E 018°48'612.0
2017-Aug-19 17:00N 59°34' E 018°37'5 9.9
2017-Aug-19 16:30N 59°31' E 018°30'611.4
2017-Aug-19 16:00N 59°26' E 018°23'4 8.4
2017-Aug-19 15:29N 59°22' E 018°25'510.6
2017-Aug-19 15:00N 59°21' E 018°15'5 5.0
2017-Aug-19 14:00N 59°19' E 018°06'0 0.0
2017-Aug-19 13:30N 59°19' E 018°06'0 0.0
2017-Aug-19 13:00N 59°19' E 018°06'0 0.0
2017-Aug-19 12:30N 59°19' E 018°06'0 0.0
2017-Aug-19 12:00N 59°19' E 018°06'0 0.0
2017-Aug-19 11:24N 59°19' E 018°06'0 0.0
2017-Aug-19 11:00N 59°19' E 018°06'0 0.0
2017-Aug-19 10:30N 59°19' E 018°06'0 0.0
2017-Aug-19 09:54N 59°19' E 018°06'0 0.0
2017-Aug-19 09:30N 59°19' E 018°06'0 0.0
2017-Aug-19 09:00N 59°19' E 018°06'0 0.0
2017-Aug-19 08:30N 59°19' E 018°06'0 0.1
2017-Aug-19 08:00N 59°19' E 018°06'3 6.6
2017-Aug-19 07:30N 59°20' E 018°12'510.9
2017-Aug-19 07:00N 59°22' E 018°22'3 5.7
2017-Aug-19 06:30N 59°24' E 018°27'4 8.2
2017-Aug-19 06:00N 59°28' E 018°26'511.0
2017-Aug-19 05:30N 59°32' E 018°33'510.3
2017-Aug-19 05:00N 59°35' E 018°42'612.0
2017-Aug-19 04:30N 59°38' E 018°51'611.5
2017-Aug-19 04:00N 59°41' E 019°00'715.0
2017-Aug-19 03:31N 59°45' E 019°14'815.0
2017-Aug-19 03:00N 59°50' E 019°24'815.3
2017-Aug-19 02:30N 59°55' E 019°35'815.3
2017-Aug-19 02:00N 59°60' E 019°48'713.7
2017-Aug-19 01:30N 60°05' E 019°56'3 6.1
2017-Aug-19 01:01N 60°03' E 019°53'917.2
2017-Aug-19 00:30N 59°54' E 019°58'816.7
2017-Aug-19 00:00N 59°49' E 020°10'917.3
2017-Aug-18 23:30N 59°45' E 020°25'817.0
2017-Aug-18 23:01N 59°40' E 020°40'917.2
2017-Aug-18 22:30N 59°38' E 020°57'917.2
2017-Aug-18 22:00N 59°36' E 021°13'917.2
2017-Aug-18 21:31N 59°34' E 021°30'917.2
2017-Aug-18 21:00N 59°32' E 021°46'917.1
2017-Aug-18 20:30N 59°33' E 022°03'917.7
2017-Aug-18 20:00N 59°35' E 022°20'816.9
2017-Aug-18 19:30N 59°37' E 022°36'917.4
2017-Aug-18 19:00N 59°39' E 022°53'917.2
2017-Aug-18 18:31N 59°40' E 023°10'917.3
2017-Aug-18 18:00N 59°42' E 023°27'917.3
2017-Aug-18 17:30N 59°44' E 023°43'917.3
2017-Aug-18 17:00N 59°47' E 023°60'917.4
2017-Aug-18 16:31N 59°50' E 024°16'917.3
2017-Aug-18 16:01N 59°53' E 024°32'917.3
2017-Aug-18 15:31N 59°57' E 024°47'816.3
2017-Aug-18 15:01N 60°04' E 024°57'612.6
2017-Aug-18 14:31N 60°10' E 024°58'0 0.1
2017-Aug-18 13:29N 60°10' E 024°58'0 0.0
2017-Aug-18 12:59N 60°10' E 024°58'0 0.0
2017-Aug-18 12:23N 60°10' E 024°58'0 0.0
2017-Aug-18 11:56N 60°10' E 024°58'0 0.0
2017-Aug-18 11:26N 60°10' E 024°58'0 0.0
2017-Aug-18 10:59N 60°10' E 024°58'0 0.0
2017-Aug-18 10:23N 60°10' E 024°58'0 0.0
2017-Aug-18 09:59N 60°10' E 024°58'0 0.0
2017-Aug-18 09:20N 60°10' E 024°58'0 0.0
2017-Aug-18 08:59N 60°10' E 024°58'0 0.0
2017-Aug-18 08:29N 60°10' E 024°58'0 0.0
2017-Aug-18 07:59N 60°10' E 024°58'0 0.0
2017-Aug-18 07:29N 60°10' E 024°58'0 0.5
2017-Aug-18 07:01N 60°10' E 024°58'713.4
2017-Aug-18 06:31N 60°03' E 024°57'917.2
2017-Aug-18 06:01N 59°57' E 024°46'918.7
2017-Aug-18 05:31N 59°52' E 024°30'918.4
2017-Aug-18 05:01N 59°48' E 024°13'918.6
2017-Aug-18 04:30N 59°46' E 023°55'918.4
2017-Aug-18 04:01N 59°44' E 023°37'918.4
2017-Aug-18 03:31N 59°42' E 023°19'918.4
2017-Aug-18 03:00N 59°40' E 023°02'918.5
2017-Aug-18 02:31N 59°38' E 022°44'918.4
2017-Aug-18 02:00N 59°36' E 022°26'918.5
2017-Aug-18 01:31N 59°34' E 022°08'918.4
2017-Aug-18 01:00N 59°32' E 021°50'918.5
2017-Aug-18 00:30N 59°33' E 021°32'918.3
2017-Aug-18 00:00N 59°35' E 021°15'918.4
2017-Aug-17 23:31N 59°37' E 020°57'918.5
2017-Aug-17 23:01N 59°39' E 020°39'918.0
2017-Aug-17 22:31N 59°44' E 020°25'918.5
2017-Aug-17 22:00N 59°49' E 020°09'917.8
2017-Aug-17 21:30N 59°55' E 019°57'917.9
2017-Aug-17 21:01N 60°04' E 019°56'1 1.3
2017-Aug-17 20:30N 60°05' E 019°56'612.2
2017-Aug-17 20:00N 59°60' E 019°49'816.9
2017-Aug-17 19:30N 59°54' E 019°37'917.1
2017-Aug-17 19:00N 59°48' E 019°25'917.4
2017-Aug-17 18:31N 59°44' E 019°10'815.6
2017-Aug-17 18:00N 59°40' E 018°56'510.1
2017-Aug-17 17:30N 59°37' E 018°49'713.4
2017-Aug-17 17:00N 59°33' E 018°37'5 9.1
2017-Aug-17 16:30N 59°31' E 018°30'611.4
2017-Aug-17 16:01N 59°26' E 018°23'510.1
2017-Aug-17 15:31N 59°21' E 018°26'510.7
2017-Aug-17 15:00N 59°22' E 018°16'510.5
2017-Aug-17 14:30N 59°19' E 018°07'0 0.8
2017-Aug-17 13:58N 59°19' E 018°06'0 0.0
2017-Aug-17 13:22N 59°19' E 018°06'0 0.0
2017-Aug-17 12:58N 59°19' E 018°06'0 0.0
2017-Aug-17 12:28N 59°19' E 018°06'0 0.0
2017-Aug-17 11:46N 59°19' E 018°06'0 0.0
2017-Aug-17 11:28N 59°19' E 018°06'0 0.0
2017-Aug-17 10:58N 59°19' E 018°06'0 0.0
2017-Aug-17 10:28N 59°19' E 018°06'0 0.0
2017-Aug-17 09:58N 59°19' E 018°06'0 0.0
2017-Aug-17 09:28N 59°19' E 018°06'0 0.0
2017-Aug-17 09:00N 59°19' E 018°06'0 0.0
2017-Aug-17 08:31N 59°19' E 018°06'0 0.0
2017-Aug-17 08:01N 59°19' E 018°06'2 4.3
2017-Aug-17 07:31N 59°19' E 018°10'611.6
2017-Aug-17 06:59N 59°23' E 018°20'3 7.1
2017-Aug-17 06:30N 59°23' E 018°27'5 9.4
2017-Aug-17 06:00N 59°28' E 018°26'510.9
2017-Aug-17 05:31N 59°32' E 018°33'510.6
2017-Aug-17 05:00N 59°35' E 018°42'612.2
2017-Aug-17 04:30N 59°38' E 018°52'611.4
2017-Aug-17 04:01N 59°41' E 019°01'714.8
2017-Aug-17 03:31N 59°45' E 019°14'714.8
2017-Aug-17 03:00N 59°48' E 019°27'815.0
2017-Aug-17 02:30N 59°54' E 019°37'815.1
2017-Aug-17 02:00N 59°59' E 019°47'714.3
2017-Aug-17 01:30N 60°05' E 019°56'3 5.4
2017-Aug-17 01:01N 60°03' E 019°54'917.1
2017-Aug-17 00:30N 59°54' E 019°58'816.9
2017-Aug-17 00:01N 59°49' E 020°10'917.3
2017-Aug-16 23:31N 59°45' E 020°25'917.0
2017-Aug-16 23:00N 59°40' E 020°40'917.3
2017-Aug-16 22:30N 59°38' E 020°57'917.3
2017-Aug-16 22:01N 59°36' E 021°13'917.2
2017-Aug-16 21:30N 59°34' E 021°29'918.0
2017-Aug-16 21:00N 59°32' E 021°47'1019.1
2017-Aug-16 20:30N 59°33' E 022°06'917.6
2017-Aug-16 20:00N 59°35' E 022°23'917.2
2017-Aug-16 19:30N 59°37' E 022°39'714.2
2017-Aug-16 19:00N 59°38' E 022°53'917.1
2017-Aug-16 18:30N 59°40' E 023°10'917.3
2017-Aug-16 18:00N 59°42' E 023°26'917.2
2017-Aug-16 17:30N 59°44' E 023°43'917.2
2017-Aug-16 17:00N 59°47' E 023°59'917.4
2017-Aug-16 16:31N 59°49' E 024°16'917.2
2017-Aug-16 16:00N 59°53' E 024°31'917.3
2017-Aug-16 15:31N 59°57' E 024°46'816.3
2017-Aug-16 15:01N 60°03' E 024°57'713.1
2017-Aug-16 14:31N 60°10' E 024°58'0 0.4
2017-Aug-16 13:58N 60°10' E 024°58'0 0.0
2017-Aug-16 13:24N 60°10' E 024°58'0 0.0
2017-Aug-16 12:59N 60°10' E 024°58'0 0.0
2017-Aug-16 12:29N 60°10' E 024°58'0 0.0
2017-Aug-16 12:00N 60°10' E 024°58'0 0.0
2017-Aug-16 11:29N 60°10' E 024°58'0 0.0
2017-Aug-16 10:54N 60°10' E 024°58'0 0.0
2017-Aug-16 10:27N 60°10' E 024°58'0 0.0
2017-Aug-16 10:00N 60°10' E 024°58'0 0.0
2017-Aug-16 09:29N 60°10' E 024°58'0 0.0
2017-Aug-16 08:58N 60°10' E 024°58'0 0.0
2017-Aug-16 08:30N 60°10' E 024°58'0 0.0
2017-Aug-16 08:01N 60°10' E 024°58'0 0.0
2017-Aug-16 07:31N 60°10' E 024°58'1 1.8
2017-Aug-16 07:00N 60°09' E 024°59'715.0
2017-Aug-16 06:31N 60°02' E 024°57'917.2
2017-Aug-16 06:00N 59°56' E 024°45'917.0
2017-Aug-16 05:30N 59°52' E 024°30'918.1
2017-Aug-16 05:01N 59°49' E 024°13'917.9
2017-Aug-16 04:31N 59°46' E 023°56'918.4
2017-Aug-16 04:01N 59°44' E 023°38'918.1
2017-Aug-16 03:31N 59°42' E 023°21'919.0
2017-Aug-16 03:01N 59°40' E 023°03'1019.5
2017-Aug-16 02:31N 59°38' E 022°44'918.4
2017-Aug-16 02:01N 59°36' E 022°26'918.8
2017-Aug-16 01:30N 59°34' E 022°08'816.5
2017-Aug-16 01:01N 59°32' E 021°52'1020.1
2017-Aug-16 00:31N 59°33' E 021°32'917.0
2017-Aug-16 00:00N 59°35' E 021°16'918.4
2017-Aug-15 23:31N 59°37' E 020°58'918.6
2017-Aug-15 23:00N 59°39' E 020°40'1019.4
2017-Aug-15 22:30N 59°44' E 020°24'1020.3
2017-Aug-15 22:00N 59°50' E 020°07'918.0
2017-Aug-15 21:31N 59°57' E 019°56'714.8
2017-Aug-15 21:00N 60°04' E 019°55'1 3.0
2017-Aug-15 20:30N 60°06' E 019°56'713.1
2017-Aug-15 20:00N 59°60' E 019°49'917.5
2017-Aug-15 19:30N 59°54' E 019°35'917.2
2017-Aug-15 19:01N 59°49' E 019°22'816.3
2017-Aug-15 18:31N 59°44' E 019°10'816.2
2017-Aug-15 18:00N 59°40' E 018°56'510.8
2017-Aug-15 17:30N 59°36' E 018°47'611.6
2017-Aug-15 17:01N 59°33' E 018°37'5 9.8
2017-Aug-15 16:31N 59°31' E 018°29'611.1
2017-Aug-15 16:01N 59°26' E 018°23'4 8.0
2017-Aug-15 15:27N 59°22' E 018°25'4 9.9
2017-Aug-15 15:00N 59°22' E 018°16'510.4
2017-Aug-15 14:30N 59°19' E 018°07'1 0.9
2017-Aug-15 13:48N 59°19' E 018°06'0 0.0
2017-Aug-15 13:27N 59°19' E 018°06'0 0.0
2017-Aug-15 12:21N 59°19' E 018°06'0 0.0
2017-Aug-15 11:57N 59°19' E 018°06'0 0.0
2017-Aug-15 11:30N 59°19' E 018°06'0 0.0
2017-Aug-15 11:00N 59°19' E 018°06'0 0.0
2017-Aug-15 10:24N 59°19' E 018°06'0 0.0
2017-Aug-15 10:00N 59°19' E 018°06'0 0.0
2017-Aug-15 09:27N 59°19' E 018°06'0 0.0
2017-Aug-15 08:57N 59°19' E 018°06'0 0.0
2017-Aug-15 08:24N 59°19' E 018°06'0 0.0
2017-Aug-15 08:00N 59°19' E 018°06'3 5.7
2017-Aug-15 07:30N 59°20' E 018°11'611.4
2017-Aug-15 07:00N 59°23' E 018°21'3 6.1
2017-Aug-15 06:30N 59°24' E 018°27'4 8.6
2017-Aug-15 06:00N 59°28' E 018°26'510.5
2017-Aug-15 05:30N 59°32' E 018°33'510.4
2017-Aug-15 05:00N 59°35' E 018°41'612.1
2017-Aug-15 04:30N 59°38' E 018°51'510.8
2017-Aug-15 04:01N 59°41' E 018°60'714.9
2017-Aug-15 03:31N 59°44' E 019°13'714.8
2017-Aug-15 03:01N 59°48' E 019°26'815.1
2017-Aug-15 02:30N 59°54' E 019°37'817.0
2017-Aug-15 02:00N 59°60' E 019°48'713.7
2017-Aug-15 01:30N 60°05' E 019°56'3 6.0
2017-Aug-15 01:01N 60°03' E 019°54'918.2
2017-Aug-15 00:30N 59°54' E 019°58'815.4
2017-Aug-15 00:01N 59°49' E 020°10'917.4
2017-Aug-14 23:31N 59°45' E 020°25'917.5
2017-Aug-14 23:00N 59°40' E 020°40'917.4
2017-Aug-14 22:30N 59°38' E 020°57'917.5
2017-Aug-14 22:00N 59°36' E 021°13'917.4
2017-Aug-14 21:31N 59°34' E 021°30'918.9
2017-Aug-14 21:00N 59°32' E 021°48'816.5
2017-Aug-14 20:31N 59°33' E 022°04'1019.8
2017-Aug-14 20:00N 59°35' E 022°24'816.2
2017-Aug-14 19:30N 59°37' E 022°39'816.3
2017-Aug-14 19:00N 59°38' E 022°55'917.6
2017-Aug-14 18:30N 59°40' E 023°12'917.7
2017-Aug-14 18:01N 59°42' E 023°29'917.4
2017-Aug-14 17:31N 59°44' E 023°46'917.4
2017-Aug-14 17:00N 59°47' E 024°03'917.5
2017-Aug-14 16:30N 59°49' E 024°19'917.4
2017-Aug-14 16:00N 59°53' E 024°34'917.5
2017-Aug-14 15:30N 59°58' E 024°49'816.5
2017-Aug-14 15:00N 60°05' E 024°58'510.2
2017-Aug-14 14:31N 60°10' E 024°58'0 0.2
2017-Aug-14 13:55N 60°10' E 024°58'0 0.0
2017-Aug-14 13:28N 60°10' E 024°58'0 0.0
2017-Aug-14 12:58N 60°10' E 024°58'0 0.0
2017-Aug-14 12:28N 60°10' E 024°58'0 0.0
2017-Aug-14 11:55N 60°10' E 024°58'0 0.0
2017-Aug-14 11:28N 60°10' E 024°58'0 0.0
2017-Aug-14 10:58N 60°10' E 024°58'0 0.0
2017-Aug-14 10:28N 60°10' E 024°58'0 0.0
2017-Aug-14 09:58N 60°10' E 024°58'0 0.0
2017-Aug-14 09:28N 60°10' E 024°58'0 0.0
2017-Aug-14 08:58N 60°10' E 024°58'0 0.0
2017-Aug-14 08:28N 60°10' E 024°58'0 0.0
2017-Aug-14 07:58N 60°10' E 024°58'0 0.0
2017-Aug-14 07:28N 60°10' E 024°58'0 0.6
2017-Aug-14 07:01N 60°10' E 024°58'713.2
2017-Aug-14 06:30N 60°03' E 024°58'816.8
2017-Aug-14 06:00N 59°57' E 024°47'918.2
2017-Aug-14 05:31N 59°52' E 024°31'918.1
2017-Aug-14 05:00N 59°49' E 024°14'918.4
2017-Aug-14 04:30N 59°46' E 023°57'918.3
2017-Aug-14 04:00N 59°44' E 023°39'918.2
2017-Aug-14 03:31N 59°42' E 023°22'918.2
2017-Aug-14 03:00N 59°40' E 023°04'918.2
2017-Aug-14 02:31N 59°38' E 022°46'918.2
2017-Aug-14 02:01N 59°36' E 022°29'918.2
2017-Aug-14 01:30N 59°34' E 022°11'918.2
2017-Aug-14 01:00N 59°32' E 021°54'918.3
2017-Aug-14 00:31N 59°33' E 021°36'918.3
2017-Aug-14 00:01N 59°34' E 021°18'918.3
2017-Aug-13 23:31N 59°36' E 021°00'917.9
2017-Aug-13 23:00N 59°38' E 020°43'917.9
2017-Aug-13 22:31N 59°43' E 020°28'1019.2
2017-Aug-13 22:00N 59°48' E 020°12'918.0
2017-Aug-13 21:31N 59°54' E 019°58'917.7
2017-Aug-13 21:01N 60°02' E 019°53'3 6.6
2017-Aug-13 20:31N 60°05' E 019°56'612.9
2017-Aug-13 20:00N 60°00' E 019°49'917.7
2017-Aug-13 19:30N 59°54' E 019°37'917.2
2017-Aug-13 19:01N 59°47' E 019°25'917.0
2017-Aug-13 18:30N 59°44' E 019°10'816.2
2017-Aug-13 18:01N 59°40' E 018°56'510.6
2017-Aug-13 17:31N 59°36' E 018°47'611.6
2017-Aug-13 17:00N 59°34' E 018°37'610.0
2017-Aug-13 16:25N 59°30' E 018°28'511.7
2017-Aug-13 16:01N 59°26' E 018°23'4 8.1
2017-Aug-13 15:28N 59°22' E 018°25'510.1
2017-Aug-13 15:00N 59°22' E 018°16'510.3
2017-Aug-13 14:30N 59°19' E 018°07'1 1.1
2017-Aug-13 13:58N 59°19' E 018°06'0 0.0
2017-Aug-13 13:25N 59°19' E 018°06'0 0.0
2017-Aug-13 12:58N 59°19' E 018°06'0 0.0
2017-Aug-13 12:25N 59°19' E 018°06'0 0.0
2017-Aug-13 11:58N 59°19' E 018°06'0 0.0
2017-Aug-13 11:25N 59°19' E 018°06'0 0.0
2017-Aug-13 10:55N 59°19' E 018°06'0 0.0
2017-Aug-13 10:28N 59°19' E 018°06'0 0.0
2017-Aug-13 09:58N 59°19' E 018°06'0 0.0
2017-Aug-13 09:28N 59°19' E 018°06'0 0.0
2017-Aug-13 08:58N 59°19' E 018°06'0 0.0
2017-Aug-13 08:28N 59°19' E 018°06'0 0.0
2017-Aug-13 08:00N 59°19' E 018°06'3 5.8
2017-Aug-13 07:30N 59°20' E 018°11'611.4
2017-Aug-13 07:00N 59°23' E 018°21'3 6.1
2017-Aug-13 06:31N 59°24' E 018°27'4 8.4
2017-Aug-13 06:01N 59°28' E 018°26'610.5
2017-Aug-13 05:26N 59°32' E 018°34'410.5
2017-Aug-13 05:00N 59°35' E 018°42'612.2
2017-Aug-13 04:30N 59°38' E 018°51'510.8
2017-Aug-13 04:01N 59°41' E 018°60'815.4
2017-Aug-13 03:30N 59°44' E 019°14'815.2
2017-Aug-13 03:01N 59°50' E 019°25'815.5
2017-Aug-13 02:30N 59°55' E 019°37'815.5
2017-Aug-13 02:01N 59°60' E 019°48'713.4
2017-Aug-13 01:30N 60°05' E 019°56'3 5.5
2017-Aug-13 01:01N 60°03' E 019°54'917.1
2017-Aug-13 00:30N 59°54' E 019°58'817.0
2017-Aug-13 00:01N 59°49' E 020°10'917.5
2017-Aug-12 23:31N 59°44' E 020°25'917.4
2017-Aug-12 23:01N 59°40' E 020°40'917.6
2017-Aug-12 22:31N 59°38' E 020°57'917.6
2017-Aug-12 22:00N 59°36' E 021°14'917.6
2017-Aug-12 21:31N 59°34' E 021°31'917.5
2017-Aug-12 21:01N 59°32' E 021°48'917.3
2017-Aug-12 20:30N 59°33' E 022°05'917.5
2017-Aug-12 20:01N 59°35' E 022°22'917.5
2017-Aug-12 19:31N 59°37' E 022°39'917.5
2017-Aug-12 19:00N 59°38' E 022°56'917.5
2017-Aug-12 18:30N 59°40' E 023°13'917.5
2017-Aug-12 18:01N 59°42' E 023°30'917.4
2017-Aug-12 17:31N 59°44' E 023°46'917.4
2017-Aug-12 17:00N 59°47' E 024°03'917.4
2017-Aug-12 16:30N 59°49' E 024°19'917.4
2017-Aug-12 16:01N 59°53' E 024°35'917.4
2017-Aug-12 15:30N 59°58' E 024°50'816.5
2017-Aug-12 15:00N 60°05' E 024°58'510.1
2017-Aug-12 14:30N 60°10' E 024°58'0 0.3
2017-Aug-12 13:59N 60°10' E 024°58'0 0.0
2017-Aug-12 13:29N 60°10' E 024°58'0 0.0
2017-Aug-12 12:59N 60°10' E 024°58'0 0.0
2017-Aug-12 12:29N 60°10' E 024°58'0 0.0
2017-Aug-12 11:59N 60°10' E 024°58'0 0.0
2017-Aug-12 11:29N 60°10' E 024°58'0 0.0
2017-Aug-12 10:59N 60°10' E 024°58'0 0.0
2017-Aug-12 10:29N 60°10' E 024°58'0 0.0
2017-Aug-12 09:59N 60°10' E 024°58'0 0.0
2017-Aug-12 09:29N 60°10' E 024°58'0 0.0
2017-Aug-12 08:59N 60°10' E 024°58'0 0.0
2017-Aug-12 08:29N 60°10' E 024°58'0 0.0
2017-Aug-12 07:59N 60°10' E 024°58'0 0.0
2017-Aug-12 07:29N 60°10' E 024°58'0 0.6
2017-Aug-12 07:00N 60°10' E 024°58'713.3
2017-Aug-12 06:30N 60°03' E 024°58'816.6
2017-Aug-12 06:01N 59°57' E 024°47'917.8
2017-Aug-12 05:31N 59°52' E 024°31'918.2
2017-Aug-12 05:01N 59°49' E 024°15'918.6
2017-Aug-12 04:30N 59°46' E 023°57'918.4
2017-Aug-12 04:01N 59°44' E 023°39'918.7
2017-Aug-12 03:31N 59°42' E 023°21'918.3
2017-Aug-12 03:00N 59°40' E 023°04'918.3
2017-Aug-12 02:31N 59°38' E 022°46'918.3
2017-Aug-12 02:01N 59°36' E 022°28'918.4
2017-Aug-12 01:31N 59°34' E 022°11'918.4
2017-Aug-12 01:00N 59°32' E 021°53'918.4
2017-Aug-12 00:31N 59°33' E 021°35'918.5
2017-Aug-12 00:00N 59°34' E 021°17'918.6
2017-Aug-11 23:31N 59°36' E 020°59'918.4
2017-Aug-11 23:01N 59°38' E 020°41'917.2
2017-Aug-11 22:31N 59°43' E 020°27'918.2
2017-Aug-11 22:01N 59°48' E 020°12'917.9
2017-Aug-11 21:30N 59°54' E 019°58'917.9
2017-Aug-11 21:01N 60°02' E 019°53'3 6.6
2017-Aug-11 20:31N 60°06' E 019°56'613.0
2017-Aug-11 20:01N 59°60' E 019°49'918.3
2017-Aug-11 19:30N 59°53' E 019°36'816.1
2017-Aug-11 19:00N 59°48' E 019°25'917.0
2017-Aug-11 18:31N 59°44' E 019°10'917.3
2017-Aug-11 18:00N 59°39' E 018°55'5 9.5
2017-Aug-11 17:31N 59°36' E 018°48'612.1
2017-Aug-11 17:00N 59°33' E 018°37'510.5
2017-Aug-11 16:31N 59°30' E 018°29'510.6
2017-Aug-11 16:00N 59°26' E 018°23'4 8.4
2017-Aug-11 15:30N 59°22' E 018°24'510.1
2017-Aug-11 15:00N 59°21' E 018°15'4 8.8
2017-Aug-11 14:30N 59°19' E 018°07'1 0.5
2017-Aug-11 13:30N 59°19' E 018°06'0 0.0
2017-Aug-11 12:57N 59°19' E 018°06'0 0.0
2017-Aug-11 12:30N 59°19' E 018°06'0 0.0
2017-Aug-11 11:57N 59°19' E 018°06'0 0.0
2017-Aug-11 11:30N 59°19' E 018°06'0 0.0
2017-Aug-11 10:57N 59°19' E 018°06'0 0.0
2017-Aug-11 10:27N 59°19' E 018°06'0 0.0
2017-Aug-11 09:54N 59°19' E 018°06'0 0.0
2017-Aug-11 09:27N 59°19' E 018°06'0 0.0
2017-Aug-11 08:57N 59°19' E 018°06'0 0.0
2017-Aug-11 08:30N 59°19' E 018°06'0 0.0
2017-Aug-11 08:00N 59°19' E 018°06'3 6.1
2017-Aug-11 07:30N 59°20' E 018°12'611.2
2017-Aug-11 06:59N 59°22' E 018°22'3 5.7
2017-Aug-11 06:30N 59°24' E 018°27'4 8.3
2017-Aug-11 06:01N 59°28' E 018°26'510.7
2017-Aug-11 05:30N 59°32' E 018°33'510.5
2017-Aug-11 05:00N 59°35' E 018°42'612.1
2017-Aug-11 04:30N 59°38' E 018°52'611.2
2017-Aug-11 04:00N 59°41' E 019°00'815.4
2017-Aug-11 03:31N 59°45' E 019°14'815.3
2017-Aug-11 03:00N 59°49' E 019°27'815.6
2017-Aug-11 02:30N 59°54' E 019°38'815.5
2017-Aug-11 02:00N 59°60' E 019°49'713.0
2017-Aug-11 01:30N 60°05' E 019°56'3 5.6
2017-Aug-11 01:01N 60°03' E 019°54'816.6
2017-Aug-11 00:30N 59°55' E 019°57'816.7
2017-Aug-11 00:00N 59°49' E 020°09'917.4
2017-Aug-10 23:30N 59°45' E 020°25'917.3
2017-Aug-10 23:00N 59°40' E 020°40'917.4
2017-Aug-10 22:30N 59°38' E 020°56'917.5
2017-Aug-10 22:00N 59°36' E 021°13'917.4
2017-Aug-10 21:31N 59°34' E 021°30'917.4
2017-Aug-10 21:00N 59°32' E 021°46'917.3
2017-Aug-10 20:30N 59°33' E 022°03'917.6
2017-Aug-10 20:00N 59°35' E 022°20'917.4
2017-Aug-10 19:30N 59°36' E 022°37'917.5
2017-Aug-10 19:00N 59°38' E 022°54'917.5
2017-Aug-10 18:30N 59°40' E 023°11'917.5
2017-Aug-10 18:01N 59°41' E 023°28'917.3
2017-Aug-10 17:31N 59°44' E 023°45'917.3
2017-Aug-10 17:01N 59°46' E 024°01'917.4
2017-Aug-10 16:30N 59°49' E 024°18'917.3
2017-Aug-10 16:00N 59°53' E 024°33'917.3
2017-Aug-10 15:30N 59°57' E 024°48'816.4
2017-Aug-10 15:00N 60°04' E 024°58'611.9
2017-Aug-10 14:31N 60°10' E 024°58'0 0.2
2017-Aug-10 14:01N 60°10' E 024°58'0 0.0
2017-Aug-10 13:21N 60°10' E 024°58'0 0.0
2017-Aug-10 12:57N 60°10' E 024°58'0 0.0
2017-Aug-10 12:27N 60°10' E 024°58'0 0.0
2017-Aug-10 11:57N 60°10' E 024°58'0 0.0
2017-Aug-10 11:27N 60°10' E 024°58'0 0.0
2017-Aug-10 10:54N 60°10' E 024°58'0 0.0
2017-Aug-10 10:24N 60°10' E 024°58'0 0.0
2017-Aug-10 10:00N 60°10' E 024°58'0 0.0
2017-Aug-10 09:27N 60°10' E 024°58'0 0.0
2017-Aug-10 09:00N 60°10' E 024°58'0 0.0
2017-Aug-10 08:30N 60°10' E 024°58'0 0.0
2017-Aug-10 08:00N 60°10' E 024°58'0 0.0
2017-Aug-10 07:30N 60°10' E 024°58'0 0.2
2017-Aug-10 07:00N 60°10' E 024°58'713.2
2017-Aug-10 06:31N 60°03' E 024°58'816.5
2017-Aug-10 06:01N 59°57' E 024°47'917.9
2017-Aug-10 05:30N 59°52' E 024°32'918.2
2017-Aug-10 05:00N 59°49' E 024°15'918.4
2017-Aug-10 04:30N 59°47' E 023°57'918.4
2017-Aug-10 04:00N 59°44' E 023°39'918.5
2017-Aug-10 03:30N 59°42' E 023°22'918.4
2017-Aug-10 03:01N 59°40' E 023°04'918.5
2017-Aug-10 02:30N 59°38' E 022°46'918.4
2017-Aug-10 02:01N 59°36' E 022°28'918.6
2017-Aug-10 01:31N 59°34' E 022°11'918.6
2017-Aug-10 01:01N 59°32' E 021°53'918.5
2017-Aug-10 00:31N 59°33' E 021°35'918.7
2017-Aug-10 00:01N 59°35' E 021°17'918.7
2017-Aug-09 23:31N 59°37' E 020°59'918.6
2017-Aug-09 23:01N 59°39' E 020°41'918.3
2017-Aug-09 22:31N 59°44' E 020°25'918.8
2017-Aug-09 22:01N 59°49' E 020°10'918.1
2017-Aug-09 21:31N 59°55' E 019°57'816.9
2017-Aug-09 21:01N 60°04' E 019°54'2 3.8
2017-Aug-09 20:31N 60°05' E 019°56'  
Track history (hours):
 
Tides and Currents Weather Stations Pressure Air Temp Water Temp Dewpoint Dewpoint Depression Visibility Wind Speed Wind Dir Waves Ship Positions

Gabriella

Last reported at 2017-Aug-19 20:01 UTC. Time now 2017-Aug-19 20:17 UTC.
Position N 59°60' E 019°49'.

Length 172 m; draft 6.5 m.

Type: Passenger vessel. MMSI: 230361000.

Date/timePositionNaut miles runAvg speedWind from/ knotsBaromVisibWave heightAir tempDewpointWater temp
2017-Aug-19 20:01N 59°60' E 019°49'918.9
2017-Aug-19 19:31N 59°53' E 019°36'714.6
2017-Aug-19 19:01N 59°48' E 019°26'816.8
2017-Aug-19 18:31N 59°44' E 019°11'816.8
2017-Aug-19 18:00N 59°40' E 018°56'511.0
2017-Aug-19 17:30N 59°36' E 018°48'612.0
2017-Aug-19 17:00N 59°34' E 018°37'5 9.9
2017-Aug-19 16:30N 59°31' E 018°30'611.4
2017-Aug-19 16:00N 59°26' E 018°23'4 8.4
2017-Aug-19 15:29N 59°22' E 018°25'510.6
2017-Aug-19 15:00N 59°21' E 018°15'5 5.0
2017-Aug-19 14:00N 59°19' E 018°06'0 0.0
2017-Aug-19 13:30N 59°19' E 018°06'0 0.0
2017-Aug-19 13:00N 59°19' E 018°06'0 0.0
2017-Aug-19 12:30N 59°19' E 018°06'0 0.0
2017-Aug-19 12:00N 59°19' E 018°06'0 0.0
2017-Aug-19 11:24N 59°19' E 018°06'0 0.0
2017-Aug-19 11:00N 59°19' E 018°06'0 0.0
2017-Aug-19 10:30N 59°19' E 018°06'0 0.0
2017-Aug-19 09:54N 59°19' E 018°06'0 0.0
2017-Aug-19 09:30N 59°19' E 018°06'0 0.0
2017-Aug-19 09:00N 59°19' E 018°06'0 0.0
2017-Aug-19 08:30N 59°19' E 018°06'0 0.1
2017-Aug-19 08:00N 59°19' E 018°06'3 6.6
2017-Aug-19 07:30N 59°20' E 018°12'510.9
2017-Aug-19 07:00N 59°22' E 018°22'3 5.7
2017-Aug-19 06:30N 59°24' E 018°27'4 8.2
2017-Aug-19 06:00N 59°28' E 018°26'511.0
2017-Aug-19 05:30N 59°32' E 018°33'510.3
2017-Aug-19 05:00N 59°35' E 018°42'612.0
2017-Aug-19 04:30N 59°38' E 018°51'611.5
2017-Aug-19 04:00N 59°41' E 019°00'715.0
2017-Aug-19 03:31N 59°45' E 019°14'815.0
2017-Aug-19 03:00N 59°50' E 019°24'815.3
2017-Aug-19 02:30N 59°55' E 019°35'815.3
2017-Aug-19 02:00N 59°60' E 019°48'713.7
2017-Aug-19 01:30N 60°05' E 019°56'3 6.1
2017-Aug-19 01:01N 60°03' E 019°53'917.2
2017-Aug-19 00:30N 59°54' E 019°58'816.7
2017-Aug-19 00:00N 59°49' E 020°10'917.3
2017-Aug-18 23:30N 59°45' E 020°25'817.0
2017-Aug-18 23:01N 59°40' E 020°40'917.2
2017-Aug-18 22:30N 59°38' E 020°57'917.2
2017-Aug-18 22:00N 59°36' E 021°13'917.2
2017-Aug-18 21:31N 59°34' E 021°30'917.2
2017-Aug-18 21:00N 59°32' E 021°46'917.1
2017-Aug-18 20:30N 59°33' E 022°03'917.7
2017-Aug-18 20:00N 59°35' E 022°20'816.9
2017-Aug-18 19:30N 59°37' E 022°36'917.4
2017-Aug-18 19:00N 59°39' E 022°53'917.2
2017-Aug-18 18:31N 59°40' E 023°10'917.3
2017-Aug-18 18:00N 59°42' E 023°27'917.3
2017-Aug-18 17:30N 59°44' E 023°43'917.3
2017-Aug-18 17:00N 59°47' E 023°60'917.4
2017-Aug-18 16:31N 59°50' E 024°16'917.3
2017-Aug-18 16:01N 59°53' E 024°32'917.3
2017-Aug-18 15:31N 59°57' E 024°47'816.3
2017-Aug-18 15:01N 60°04' E 024°57'612.6
2017-Aug-18 14:31N 60°10' E 024°58'0 0.1
2017-Aug-18 13:29N 60°10' E 024°58'0 0.0
2017-Aug-18 12:59N 60°10' E 024°58'0 0.0
2017-Aug-18 12:23N 60°10' E 024°58'0 0.0
2017-Aug-18 11:56N 60°10' E 024°58'0 0.0
2017-Aug-18 11:26N 60°10' E 024°58'0 0.0
2017-Aug-18 10:59N 60°10' E 024°58'0 0.0
2017-Aug-18 10:23N 60°10' E 024°58'0 0.0
2017-Aug-18 09:59N 60°10' E 024°58'0 0.0
2017-Aug-18 09:20N 60°10' E 024°58'0 0.0
2017-Aug-18 08:59N 60°10' E 024°58'0 0.0
2017-Aug-18 08:29N 60°10' E 024°58'0 0.0
2017-Aug-18 07:59N 60°10' E 024°58'0 0.0
2017-Aug-18 07:29N 60°10' E 024°58'0 0.5
2017-Aug-18 07:01N 60°10' E 024°58'713.4
2017-Aug-18 06:31N 60°03' E 024°57'917.2
2017-Aug-18 06:01N 59°57' E 024°46'918.7
2017-Aug-18 05:31N 59°52' E 024°30'918.4
2017-Aug-18 05:01N 59°48' E 024°13'918.6
2017-Aug-18 04:30N 59°46' E 023°55'918.4
2017-Aug-18 04:01N 59°44' E 023°37'918.4
2017-Aug-18 03:31N 59°42' E 023°19'918.4
2017-Aug-18 03:00N 59°40' E 023°02'918.5
2017-Aug-18 02:31N 59°38' E 022°44'918.4
2017-Aug-18 02:00N 59°36' E 022°26'918.5
2017-Aug-18 01:31N 59°34' E 022°08'918.4
2017-Aug-18 01:00N 59°32' E 021°50'918.5
2017-Aug-18 00:30N 59°33' E 021°32'918.3
2017-Aug-18 00:00N 59°35' E 021°15'918.4
2017-Aug-17 23:31N 59°37' E 020°57'918.5
2017-Aug-17 23:01N 59°39' E 020°39'918.0
2017-Aug-17 22:31N 59°44' E 020°25'918.5
2017-Aug-17 22:00N 59°49' E 020°09'917.8
2017-Aug-17 21:30N 59°55' E 019°57'917.9
2017-Aug-17 21:01N 60°04' E 019°56'1 1.3
2017-Aug-17 20:30N 60°05' E 019°56'612.2
2017-Aug-17 20:00N 59°60' E 019°49'816.9
2017-Aug-17 19:30N 59°54' E 019°37'917.1
2017-Aug-17 19:00N 59°48' E 019°25'917.4
2017-Aug-17 18:31N 59°44' E 019°10'815.6
2017-Aug-17 18:00N 59°40' E 018°56'510.1
2017-Aug-17 17:30N 59°37' E 018°49'713.4
2017-Aug-17 17:00N 59°33' E 018°37'5 9.1
2017-Aug-17 16:30N 59°31' E 018°30'611.4
2017-Aug-17 16:01N 59°26' E 018°23'510.1
2017-Aug-17 15:31N 59°21' E 018°26'510.7
2017-Aug-17 15:00N 59°22' E 018°16'510.5
2017-Aug-17 14:30N 59°19' E 018°07'0 0.8
2017-Aug-17 13:58N 59°19' E 018°06'0 0.0
2017-Aug-17 13:22N 59°19' E 018°06'0 0.0
2017-Aug-17 12:58N 59°19' E 018°06'0 0.0
2017-Aug-17 12:28N 59°19' E 018°06'0 0.0
2017-Aug-17 11:46N 59°19' E 018°06'0 0.0
2017-Aug-17 11:28N 59°19' E 018°06'0 0.0
2017-Aug-17 10:58N 59°19' E 018°06'0 0.0
2017-Aug-17 10:28N 59°19' E 018°06'0 0.0
2017-Aug-17 09:58N 59°19' E 018°06'0 0.0
2017-Aug-17 09:28N 59°19' E 018°06'0 0.0
2017-Aug-17 09:00N 59°19' E 018°06'0 0.0
2017-Aug-17 08:31N 59°19' E 018°06'0 0.0
2017-Aug-17 08:01N 59°19' E 018°06'2 4.3
2017-Aug-17 07:31N 59°19' E 018°10'611.6
2017-Aug-17 06:59N 59°23' E 018°20'3 7.1
2017-Aug-17 06:30N 59°23' E 018°27'5 9.4
2017-Aug-17 06:00N 59°28' E 018°26'510.9
2017-Aug-17 05:31N 59°32' E 018°33'510.6
2017-Aug-17 05:00N 59°35' E 018°42'612.2
2017-Aug-17 04:30N 59°38' E 018°52'611.4
2017-Aug-17 04:01N 59°41' E 019°01'714.8
2017-Aug-17 03:31N 59°45' E 019°14'714.8
2017-Aug-17 03:00N 59°48' E 019°27'815.0
2017-Aug-17 02:30N 59°54' E 019°37'815.1
2017-Aug-17 02:00N 59°59' E 019°47'714.3
2017-Aug-17 01:30N 60°05' E 019°56'3 5.4
2017-Aug-17 01:01N 60°03' E 019°54'917.1
2017-Aug-17 00:30N 59°54' E 019°58'816.9
2017-Aug-17 00:01N 59°49' E 020°10'917.3
2017-Aug-16 23:31N 59°45' E 020°25'917.0
2017-Aug-16 23:00N 59°40' E 020°40'917.3
2017-Aug-16 22:30N 59°38' E 020°57'917.3
2017-Aug-16 22:01N 59°36' E 021°13'917.2
2017-Aug-16 21:30N 59°34' E 021°29'918.0
2017-Aug-16 21:00N 59°32' E 021°47'1019.1
2017-Aug-16 20:30N 59°33' E 022°06'917.6
2017-Aug-16 20:00N 59°35' E 022°23'917.2
2017-Aug-16 19:30N 59°37' E 022°39'714.2
2017-Aug-16 19:00N 59°38' E 022°53'917.1
2017-Aug-16 18:30N 59°40' E 023°10'917.3
2017-Aug-16 18:00N 59°42' E 023°26'917.2
2017-Aug-16 17:30N 59°44' E 023°43'917.2
2017-Aug-16 17:00N 59°47' E 023°59'917.4
2017-Aug-16 16:31N 59°49' E 024°16'917.2
2017-Aug-16 16:00N 59°53' E 024°31'917.3
2017-Aug-16 15:31N 59°57' E 024°46'816.3
2017-Aug-16 15:01N 60°03' E 024°57'713.1
2017-Aug-16 14:31N 60°10' E 024°58'0 0.4
2017-Aug-16 13:58N 60°10' E 024°58'0 0.0
2017-Aug-16 13:24N 60°10' E 024°58'0 0.0
2017-Aug-16 12:59N 60°10' E 024°58'0 0.0
2017-Aug-16 12:29N 60°10' E 024°58'0 0.0
2017-Aug-16 12:00N 60°10' E 024°58'0 0.0
2017-Aug-16 11:29N 60°10' E 024°58'0 0.0
2017-Aug-16 10:54N 60°10' E 024°58'0 0.0
2017-Aug-16 10:27N 60°10' E 024°58'0 0.0
2017-Aug-16 10:00N 60°10' E 024°58'0 0.0
2017-Aug-16 09:29N 60°10' E 024°58'0 0.0
2017-Aug-16 08:58N 60°10' E 024°58'0 0.0
2017-Aug-16 08:30N 60°10' E 024°58'0 0.0
2017-Aug-16 08:01N 60°10' E 024°58'0 0.0
2017-Aug-16 07:31N 60°10' E 024°58'1 1.8
2017-Aug-16 07:00N 60°09' E 024°59'715.0
2017-Aug-16 06:31N 60°02' E 024°57'917.2
2017-Aug-16 06:00N 59°56' E 024°45'917.0
2017-Aug-16 05:30N 59°52' E 024°30'918.1
2017-Aug-16 05:01N 59°49' E 024°13'917.9
2017-Aug-16 04:31N 59°46' E 023°56'918.4
2017-Aug-16 04:01N 59°44' E 023°38'918.1
2017-Aug-16 03:31N 59°42' E 023°21'919.0
2017-Aug-16 03:01N 59°40' E 023°03'1019.5
2017-Aug-16 02:31N 59°38' E 022°44'918.4
2017-Aug-16 02:01N 59°36' E 022°26'918.8
2017-Aug-16 01:30N 59°34' E 022°08'816.5
2017-Aug-16 01:01N 59°32' E 021°52'1020.1
2017-Aug-16 00:31N 59°33' E 021°32'917.0
2017-Aug-16 00:00N 59°35' E 021°16'918.4
2017-Aug-15 23:31N 59°37' E 020°58'918.6
2017-Aug-15 23:00N 59°39' E 020°40'1019.4
2017-Aug-15 22:30N 59°44' E 020°24'1020.3
2017-Aug-15 22:00N 59°50' E 020°07'918.0
2017-Aug-15 21:31N 59°57' E 019°56'714.8
2017-Aug-15 21:00N 60°04' E 019°55'1 3.0
2017-Aug-15 20:30N 60°06' E 019°56'713.1
2017-Aug-15 20:00N 59°60' E 019°49'917.5
2017-Aug-15 19:30N 59°54' E 019°35'917.2
2017-Aug-15 19:01N 59°49' E 019°22'816.3
2017-Aug-15 18:31N 59°44' E 019°10'816.2
2017-Aug-15 18:00N 59°40' E 018°56'510.8
2017-Aug-15 17:30N 59°36' E 018°47'611.6
2017-Aug-15 17:01N 59°33' E 018°37'5 9.8
2017-Aug-15 16:31N 59°31' E 018°29'611.1
2017-Aug-15 16:01N 59°26' E 018°23'4 8.0
2017-Aug-15 15:27N 59°22' E 018°25'4 9.9
2017-Aug-15 15:00N 59°22' E 018°16'510.4
2017-Aug-15 14:30N 59°19' E 018°07'1 0.9
2017-Aug-15 13:48N 59°19' E 018°06'0 0.0
2017-Aug-15 13:27N 59°19' E 018°06'0 0.0
2017-Aug-15 12:21N 59°19' E 018°06'0 0.0
2017-Aug-15 11:57N 59°19' E 018°06'0 0.0
2017-Aug-15 11:30N 59°19' E 018°06'0 0.0
2017-Aug-15 11:00N 59°19' E 018°06'0 0.0
2017-Aug-15 10:24N 59°19' E 018°06'0 0.0
2017-Aug-15 10:00N 59°19' E 018°06'0 0.0
2017-Aug-15 09:27N 59°19' E 018°06'0 0.0
2017-Aug-15 08:57N 59°19' E 018°06'0 0.0
2017-Aug-15 08:24N 59°19' E 018°06'0 0.0
2017-Aug-15 08:00N 59°19' E 018°06'3 5.7
2017-Aug-15 07:30N 59°20' E 018°11'611.4
2017-Aug-15 07:00N 59°23' E 018°21'3 6.1
2017-Aug-15 06:30N 59°24' E 018°27'4 8.6
2017-Aug-15 06:00N 59°28' E 018°26'510.5
2017-Aug-15 05:30N 59°32' E 018°33'510.4
2017-Aug-15 05:00N 59°35' E 018°41'612.1
2017-Aug-15 04:30N 59°38' E 018°51'510.8
2017-Aug-15 04:01N 59°41' E 018°60'714.9
2017-Aug-15 03:31N 59°44' E 019°13'714.8
2017-Aug-15 03:01N 59°48' E 019°26'815.1
2017-Aug-15 02:30N 59°54' E 019°37'817.0
2017-Aug-15 02:00N 59°60' E 019°48'713.7
2017-Aug-15 01:30N 60°05' E 019°56'3 6.0
2017-Aug-15 01:01N 60°03' E 019°54'918.2
2017-Aug-15 00:30N 59°54' E 019°58'815.4
2017-Aug-15 00:01N 59°49' E 020°10'917.4
2017-Aug-14 23:31N 59°45' E 020°25'917.5
2017-Aug-14 23:00N 59°40' E 020°40'917.4
2017-Aug-14 22:30N 59°38' E 020°57'917.5
2017-Aug-14 22:00N 59°36' E 021°13'917.4
2017-Aug-14 21:31N 59°34' E 021°30'918.9
2017-Aug-14 21:00N 59°32' E 021°48'816.5
2017-Aug-14 20:31N 59°33' E 022°04'1019.8
2017-Aug-14 20:00N 59°35' E 022°24'816.2
2017-Aug-14 19:30N 59°37' E 022°39'816.3
2017-Aug-14 19:00N 59°38' E 022°55'917.6
2017-Aug-14 18:30N 59°40' E 023°12'917.7
2017-Aug-14 18:01N 59°42' E 023°29'917.4
2017-Aug-14 17:31N 59°44' E 023°46'917.4
2017-Aug-14 17:00N 59°47' E 024°03'917.5
2017-Aug-14 16:30N 59°49' E 024°19'917.4
2017-Aug-14 16:00N 59°53' E 024°34'917.5
2017-Aug-14 15:30N 59°58' E 024°49'816.5
2017-Aug-14 15:00N 60°05' E 024°58'510.2
2017-Aug-14 14:31N 60°10' E 024°58'0 0.2
2017-Aug-14 13:55N 60°10' E 024°58'0 0.0
2017-Aug-14 13:28N 60°10' E 024°58'0 0.0
2017-Aug-14 12:58N 60°10' E 024°58'0 0.0
2017-Aug-14 12:28N 60°10' E 024°58'0 0.0
2017-Aug-14 11:55N 60°10' E 024°58'0 0.0
2017-Aug-14 11:28N 60°10' E 024°58'0 0.0
2017-Aug-14 10:58N 60°10' E 024°58'0 0.0
2017-Aug-14 10:28N 60°10' E 024°58'0 0.0
2017-Aug-14 09:58N 60°10' E 024°58'0 0.0
2017-Aug-14 09:28N 60°10' E 024°58'0 0.0
2017-Aug-14 08:58N 60°10' E 024°58'0 0.0
2017-Aug-14 08:28N 60°10' E 024°58'0 0.0
2017-Aug-14 07:58N 60°10' E 024°58'0 0.0
2017-Aug-14 07:28N 60°10' E 024°58'0 0.6
2017-Aug-14 07:01N 60°10' E 024°58'713.2
2017-Aug-14 06:30N 60°03' E 024°58'816.8
2017-Aug-14 06:00N 59°57' E 024°47'918.2
2017-Aug-14 05:31N 59°52' E 024°31'918.1
2017-Aug-14 05:00N 59°49' E 024°14'918.4
2017-Aug-14 04:30N 59°46' E 023°57'918.3
2017-Aug-14 04:00N 59°44' E 023°39'918.2
2017-Aug-14 03:31N 59°42' E 023°22'918.2
2017-Aug-14 03:00N 59°40' E 023°04'918.2
2017-Aug-14 02:31N 59°38' E 022°46'918.2
2017-Aug-14 02:01N 59°36' E 022°29'918.2
2017-Aug-14 01:30N 59°34' E 022°11'918.2
2017-Aug-14 01:00N 59°32' E 021°54'918.3
2017-Aug-14 00:31N 59°33' E 021°36'918.3
2017-Aug-14 00:01N 59°34' E 021°18'918.3
2017-Aug-13 23:31N 59°36' E 021°00'917.9
2017-Aug-13 23:00N 59°38' E 020°43'917.9
2017-Aug-13 22:31N 59°43' E 020°28'1019.2
2017-Aug-13 22:00N 59°48' E 020°12'918.0
2017-Aug-13 21:31N 59°54' E 019°58'917.7
2017-Aug-13 21:01N 60°02' E 019°53'3 6.6
2017-Aug-13 20:31N 60°05' E 019°56'612.9
2017-Aug-13 20:00N 60°00' E 019°49'917.7
2017-Aug-13 19:30N 59°54' E 019°37'917.2
2017-Aug-13 19:01N 59°47' E 019°25'917.0
2017-Aug-13 18:30N 59°44' E 019°10'816.2
2017-Aug-13 18:01N 59°40' E 018°56'510.6
2017-Aug-13 17:31N 59°36' E 018°47'611.6
2017-Aug-13 17:00N 59°34' E 018°37'610.0
2017-Aug-13 16:25N 59°30' E 018°28'511.7
2017-Aug-13 16:01N 59°26' E 018°23'4 8.1
2017-Aug-13 15:28N 59°22' E 018°25'510.1
2017-Aug-13 15:00N 59°22' E 018°16'510.3
2017-Aug-13 14:30N 59°19' E 018°07'1 1.1
2017-Aug-13 13:58N 59°19' E 018°06'0 0.0
2017-Aug-13 13:25N 59°19' E 018°06'0 0.0
2017-Aug-13 12:58N 59°19' E 018°06'0 0.0
2017-Aug-13 12:25N 59°19' E 018°06'0 0.0
2017-Aug-13 11:58N 59°19' E 018°06'0 0.0
2017-Aug-13 11:25N 59°19' E 018°06'0 0.0
2017-Aug-13 10:55N 59°19' E 018°06'0 0.0
2017-Aug-13 10:28N 59°19' E 018°06'0 0.0
2017-Aug-13 09:58N 59°19' E 018°06'0 0.0
2017-Aug-13 09:28N 59°19' E 018°06'0 0.0
2017-Aug-13 08:58N 59°19' E 018°06'0 0.0
2017-Aug-13 08:28N 59°19' E 018°06'0 0.0
2017-Aug-13 08:00N 59°19' E 018°06'3 5.8
2017-Aug-13 07:30N 59°20' E 018°11'611.4
2017-Aug-13 07:00N 59°23' E 018°21'3 6.1
2017-Aug-13 06:31N 59°24' E 018°27'4 8.4
2017-Aug-13 06:01N 59°28' E 018°26'610.5
2017-Aug-13 05:26N 59°32' E 018°34'410.5
2017-Aug-13 05:00N 59°35' E 018°42'612.2
2017-Aug-13 04:30N 59°38' E 018°51'510.8
2017-Aug-13 04:01N 59°41' E 018°60'815.4
2017-Aug-13 03:30N 59°44' E 019°14'815.2
2017-Aug-13 03:01N 59°50' E 019°25'815.5
2017-Aug-13 02:30N 59°55' E 019°37'815.5
2017-Aug-13 02:01N 59°60' E 019°48'713.4
2017-Aug-13 01:30N 60°05' E 019°56'3 5.5
2017-Aug-13 01:01N 60°03' E 019°54'917.1
2017-Aug-13 00:30N 59°54' E 019°58'817.0
2017-Aug-13 00:01N 59°49' E 020°10'917.5
2017-Aug-12 23:31N 59°44' E 020°25'917.4
2017-Aug-12 23:01N 59°40' E 020°40'917.6
2017-Aug-12 22:31N 59°38' E 020°57'917.6
2017-Aug-12 22:00N 59°36' E 021°14'917.6
2017-Aug-12 21:31N 59°34' E 021°31'917.5
2017-Aug-12 21:01N 59°32' E 021°48'917.3
2017-Aug-12 20:30N 59°33' E 022°05'917.5
2017-Aug-12 20:01N 59°35' E 022°22'917.5
2017-Aug-12 19:31N 59°37' E 022°39'917.5
2017-Aug-12 19:00N 59°38' E 022°56'917.5
2017-Aug-12 18:30N 59°40' E 023°13'917.5
2017-Aug-12 18:01N 59°42' E 023°30'917.4
2017-Aug-12 17:31N 59°44' E 023°46'917.4
2017-Aug-12 17:00N 59°47' E 024°03'917.4
2017-Aug-12 16:30N 59°49' E 024°19'917.4
2017-Aug-12 16:01N 59°53' E 024°35'917.4
2017-Aug-12 15:30N 59°58' E 024°50'816.5
2017-Aug-12 15:00N 60°05' E 024°58'510.1
2017-Aug-12 14:30N 60°10' E 024°58'0 0.3
2017-Aug-12 13:59N 60°10' E 024°58'0 0.0
2017-Aug-12 13:29N 60°10' E 024°58'0 0.0
2017-Aug-12 12:59N 60°10' E 024°58'0 0.0
2017-Aug-12 12:29N 60°10' E 024°58'0 0.0
2017-Aug-12 11:59N 60°10' E 024°58'0 0.0
2017-Aug-12 11:29N 60°10' E 024°58'0 0.0
2017-Aug-12 10:59N 60°10' E 024°58'0 0.0
2017-Aug-12 10:29N 60°10' E 024°58'0 0.0
2017-Aug-12 09:59N 60°10' E 024°58'0 0.0
2017-Aug-12 09:29N 60°10' E 024°58'0 0.0
2017-Aug-12 08:59N 60°10' E 024°58'0 0.0
2017-Aug-12 08:29N 60°10' E 024°58'0 0.0
2017-Aug-12 07:59N 60°10' E 024°58'0 0.0
2017-Aug-12 07:29N 60°10' E 024°58'0 0.6
2017-Aug-12 07:00N 60°10' E 024°58'713.3
2017-Aug-12 06:30N 60°03' E 024°58'816.6
2017-Aug-12 06:01N 59°57' E 024°47'917.8
2017-Aug-12 05:31N 59°52' E 024°31'918.2
2017-Aug-12 05:01N 59°49' E 024°15'918.6
2017-Aug-12 04:30N 59°46' E 023°57'918.4
2017-Aug-12 04:01N 59°44' E 023°39'918.7
2017-Aug-12 03:31N 59°42' E 023°21'918.3
2017-Aug-12 03:00N 59°40' E 023°04'918.3
2017-Aug-12 02:31N 59°38' E 022°46'918.3
2017-Aug-12 02:01N 59°36' E 022°28'918.4
2017-Aug-12 01:31N 59°34' E 022°11'918.4
2017-Aug-12 01:00N 59°32' E 021°53'918.4
2017-Aug-12 00:31N 59°33' E 021°35'918.5
2017-Aug-12 00:00N 59°34' E 021°17'918.6
2017-Aug-11 23:31N 59°36' E 020°59'918.4
2017-Aug-11 23:01N 59°38' E 020°41'917.2
2017-Aug-11 22:31N 59°43' E 020°27'918.2
2017-Aug-11 22:01N 59°48' E 020°12'917.9
2017-Aug-11 21:30N 59°54' E 019°58'917.9
2017-Aug-11 21:01N 60°02' E 019°53'3 6.6
2017-Aug-11 20:31N 60°06' E 019°56'613.0
2017-Aug-11 20:01N 59°60' E 019°49'918.3
2017-Aug-11 19:30N 59°53' E 019°36'816.1
2017-Aug-11 19:00N 59°48' E 019°25'917.0
2017-Aug-11 18:31N 59°44' E 019°10'917.3
2017-Aug-11 18:00N 59°39' E 018°55'5 9.5
2017-Aug-11 17:31N 59°36' E 018°48'612.1
2017-Aug-11 17:00N 59°33' E 018°37'510.5
2017-Aug-11 16:31N 59°30' E 018°29'510.6
2017-Aug-11 16:00N 59°26' E 018°23'4 8.4
2017-Aug-11 15:30N 59°22' E 018°24'510.1
2017-Aug-11 15:00N 59°21' E 018°15'4 8.8
2017-Aug-11 14:30N 59°19' E 018°07'1 0.5
2017-Aug-11 13:30N 59°19' E 018°06'0 0.0
2017-Aug-11 12:57N 59°19' E 018°06'0 0.0
2017-Aug-11 12:30N 59°19' E 018°06'0 0.0
2017-Aug-11 11:57N 59°19' E 018°06'0 0.0
2017-Aug-11 11:30N 59°19' E 018°06'0 0.0
2017-Aug-11 10:57N 59°19' E 018°06'0 0.0
2017-Aug-11 10:27N 59°19' E 018°06'0 0.0
2017-Aug-11 09:54N 59°19' E 018°06'0 0.0
2017-Aug-11 09:27N 59°19' E 018°06'0 0.0
2017-Aug-11 08:57N 59°19' E 018°06'0 0.0
2017-Aug-11 08:30N 59°19' E 018°06'0 0.0
2017-Aug-11 08:00N 59°19' E 018°06'3 6.1
2017-Aug-11 07:30N 59°20' E 018°12'611.2
2017-Aug-11 06:59N 59°22' E 018°22'3 5.7
2017-Aug-11 06:30N 59°24' E 018°27'4 8.3
2017-Aug-11 06:01N 59°28' E 018°26'510.7
2017-Aug-11 05:30N 59°32' E 018°33'510.5
2017-Aug-11 05:00N 59°35' E 018°42'612.1
2017-Aug-11 04:30N 59°38' E 018°52'611.2
2017-Aug-11 04:00N 59°41' E 019°00'815.4
2017-Aug-11 03:31N 59°45' E 019°14'815.3
2017-Aug-11 03:00N 59°49' E 019°27'815.6
2017-Aug-11 02:30N 59°54' E 019°38'815.5
2017-Aug-11 02:00N 59°60' E 019°49'713.0
2017-Aug-11 01:30N 60°05' E 019°56'3 5.6
2017-Aug-11 01:01N 60°03' E 019°54'816.6
2017-Aug-11 00:30N 59°55' E 019°57'816.7
2017-Aug-11 00:00N 59°49' E 020°09'917.4
2017-Aug-10 23:30N 59°45' E 020°25'917.3
2017-Aug-10 23:00N 59°40' E 020°40'917.4
2017-Aug-10 22:30N 59°38' E 020°56'917.5
2017-Aug-10 22:00N 59°36' E 021°13'917.4
2017-Aug-10 21:31N 59°34' E 021°30'917.4
2017-Aug-10 21:00N 59°32' E 021°46'917.3
2017-Aug-10 20:30N 59°33' E 022°03'917.6
2017-Aug-10 20:00N 59°35' E 022°20'917.4
2017-Aug-10 19:30N 59°36' E 022°37'917.5
2017-Aug-10 19:00N 59°38' E 022°54'917.5
2017-Aug-10 18:30N 59°40' E 023°11'917.5
2017-Aug-10 18:01N 59°41' E 023°28'917.3
2017-Aug-10 17:31N 59°44' E 023°45'917.3
2017-Aug-10 17:01N 59°46' E 024°01'917.4
2017-Aug-10 16:30N 59°49' E 024°18'917.3
2017-Aug-10 16:00N 59°53' E 024°33'917.3
2017-Aug-10 15:30N 59°57' E 024°48'816.4
2017-Aug-10 15:00N 60°04' E 024°58'611.9
2017-Aug-10 14:31N 60°10' E 024°58'0 0.2
2017-Aug-10 14:01N 60°10' E 024°58'0 0.0
2017-Aug-10 13:21N 60°10' E 024°58'0 0.0
2017-Aug-10 12:57N 60°10' E 024°58'0 0.0
2017-Aug-10 12:27N 60°10' E 024°58'0 0.0
2017-Aug-10 11:57N 60°10' E 024°58'0 0.0
2017-Aug-10 11:27N 60°10' E 024°58'0 0.0
2017-Aug-10 10:54N 60°10' E 024°58'0 0.0
2017-Aug-10 10:24N 60°10' E 024°58'0 0.0
2017-Aug-10 10:00N 60°10' E 024°58'0 0.0
2017-Aug-10 09:27N 60°10' E 024°58'0 0.0
2017-Aug-10 09:00N 60°10' E 024°58'0 0.0
2017-Aug-10 08:30N 60°10' E 024°58'0 0.0
2017-Aug-10 08:00N 60°10' E 024°58'0 0.0
2017-Aug-10 07:30N 60°10' E 024°58'0 0.2
2017-Aug-10 07:00N 60°10' E 024°58'713.2
2017-Aug-10 06:31N 60°03' E 024°58'816.5
2017-Aug-10 06:01N 59°57' E 024°47'917.9
2017-Aug-10 05:30N 59°52' E 024°32'918.2
2017-Aug-10 05:00N 59°49' E 024°15'918.4
2017-Aug-10 04:30N 59°47' E 023°57'918.4
2017-Aug-10 04:00N 59°44' E 023°39'918.5
2017-Aug-10 03:30N 59°42' E 023°22'918.4
2017-Aug-10 03:01N 59°40' E 023°04'918.5
2017-Aug-10 02:30N 59°38' E 022°46'918.4
2017-Aug-10 02:01N 59°36' E 022°28'918.6
2017-Aug-10 01:31N 59°34' E 022°11'918.6
2017-Aug-10 01:01N 59°32' E 021°53'918.5
2017-Aug-10 00:31N 59°33' E 021°35'918.7
2017-Aug-10 00:01N 59°35' E 021°17'918.7
2017-Aug-09 23:31N 59°37' E 020°59'918.6
2017-Aug-09 23:01N 59°39' E 020°41'918.3
2017-Aug-09 22:31N 59°44' E 020°25'918.8
2017-Aug-09 22:01N 59°49' E 020°10'918.1
2017-Aug-09 21:31N 59°55' E 019°57'816.9
2017-Aug-09 21:01N 60°04' E 019°54'2 3.8
2017-Aug-09 20:31N 60°05' E 019°56'  

Dump ship's entire track history